Time;durP1;ratioP1;P1;durP2;ratioP2;P2;SDS_P1;SDS_P2;PMS_P1;PMS_P2;Temp;Humidity;BMP_temperature;BMP_pressure;BME280_temperature;BME280_humidity;BME280_pressure;Samples;Min_cycle;Max_cycle;Signal;HPM_P1;HPM_P2
2022/05/11 00:00:36;;;;;;;1.20;1.20;;;;;;;;;;4935287;29;20086;-79
2022/05/11 00:03:02;;;;;;;1.95;1.40;;;;;;;;;;4935777;29;20067;-81
2022/05/11 00:05:28;;;;;;;2.15;1.52;;;;;;;;;;4921512;29;20081;-82
2022/05/11 00:07:55;;;;;;;1.58;1.48;;;;;;;;;;4939039;29;20047;-81
2022/05/11 00:10:20;;;;;;;2.33;1.20;;;;;;;;;;4936606;29;20055;-76
2022/05/11 00:12:47;;;;;;;1.48;1.38;;;;;;;;;;4934537;29;20059;-79
2022/05/11 00:15:14;;;;;;;1.30;1.20;;;;;;;;;;4912526;29;20039;-79
2022/05/11 00:17:40;;;;;;;1.30;1.30;;;;;;;;;;4915239;29;20063;-80
2022/05/11 00:20:06;;;;;;;1.23;1.23;;;;;;;;;;4936992;29;20054;-78
2022/05/11 00:22:33;;;;;;;1.67;1.50;;;;;;;;;;4920733;29;20616;-78
2022/05/11 00:24:59;;;;;;;3.63;1.65;;;;;;;;;;4935673;29;20514;-81
2022/05/11 00:27:25;;;;;;;2.75;1.33;;;;;;;;;;4934970;29;20051;-78
2022/05/11 00:29:50;;;;;;;1.50;1.40;;;;;;;;;;4934874;29;20621;-82
2022/05/11 00:32:16;;;;;;;1.60;1.50;;;;;;;;;;4935303;29;20057;-77
2022/05/11 00:34:42;;;;;;;1.38;1.27;;;;;;;;;;4917404;29;20191;-77
2022/05/11 00:37:08;;;;;;;1.45;1.35;;;;;;;;;;4934972;29;20070;-76
2022/05/11 00:39:35;;;;;;;4.47;1.63;;;;;;;;;;4919330;29;20063;-80
2022/05/11 00:42:04;;;;;;;3.00;1.17;;;;;;;;;;4945267;29;20487;-79
2022/05/11 00:44:30;;;;;;;2.03;1.30;;;;;;;;;;4936702;29;20035;-81
2022/05/11 00:46:57;;;;;;;1.50;1.33;;;;;;;;;;4943056;29;20062;-81
2022/05/11 00:49:43;;;;;;;1.20;1.20;;;;;;;;;;4951532;28;20071;-79
2022/05/11 00:52:14;;;;;;;1.40;1.30;;;;;;;;;;4957183;29;20067;-85
2022/05/11 00:54:51;;;;;;;1.40;1.30;;;;;;;;;;4978777;29;20051;-83
2022/05/11 00:57:22;;;;;;;3.35;1.40;;;;;;;;;;4978486;29;20051;-84
2022/05/11 00:59:48;;;;;;;1.30;1.20;;;;;;;;;;4977365;29;20058;-83
2022/05/11 01:02:14;;;;;;;2.25;1.48;;;;;;;;;;4945801;29;20027;-84
2022/05/11 01:04:41;;;;;;;1.60;1.50;;;;;;;;;;4977170;28;20065;-84
2022/05/11 01:07:08;;;;;;;2.08;1.45;;;;;;;;;;4977967;29;20046;-82
2022/05/11 01:09:33;;;;;;;2.95;1.40;;;;;;;;;;4965440;29;20103;-81
2022/05/11 01:11:59;;;;;;;1.40;1.30;;;;;;;;;;4941790;29;20047;-80
2022/05/11 01:14:27;;;;;;;1.50;1.40;;;;;;;;;;4921845;29;20046;-82
2022/05/11 01:16:54;;;;;;;1.40;1.40;;;;;;;;;;4937854;29;20077;-81
2022/05/11 01:19:30;;;;;;;1.48;1.45;;;;;;;;;;4944937;29;20042;-78
2022/05/11 01:22:03;;;;;;;1.50;1.40;;;;;;;;;;4919190;29;20078;-79
2022/05/11 01:24:42;;;;;;;1.60;1.40;;;;;;;;;;4954752;29;20047;-79
2022/05/11 01:27:24;;;;;;;2.10;1.60;;;;;;;;;;4953135;29;20055;-79
2022/05/11 01:29:51;;;;;;;2.88;1.35;;;;;;;;;;4934106;29;20511;-80
2022/05/11 01:32:20;;;;;;;1.63;1.30;;;;;;;;;;4951465;29;20051;-81
2022/05/11 01:34:46;;;;;;;3.00;1.55;;;;;;;;;;4919939;29;20518;-81
2022/05/11 01:37:12;;;;;;;1.40;1.35;;;;;;;;;;4954384;29;20070;-82
2022/05/11 01:39:38;;;;;;;1.70;1.60;;;;;;;;;;4941648;29;20518;-80
2022/05/11 01:42:04;;;;;;;1.38;1.38;;;;;;;;;;4956305;29;20043;-84
2022/05/11 01:44:30;;;;;;;1.75;1.60;;;;;;;;;;4967872;29;20126;-79
2022/05/11 01:46:59;;;;;;;2.97;1.45;;;;;;;;;;4933279;29;20134;-79
2022/05/11 01:49:27;;;;;;;2.75;1.40;;;;;;;;;;4952282;29;20506;-78
2022/05/11 01:51:53;;;;;;;1.40;1.40;;;;;;;;;;4919533;29;20043;-77
2022/05/11 01:54:19;;;;;;;2.67;1.60;;;;;;;;;;4935455;29;20051;-77
2022/05/11 01:56:45;;;;;;;1.65;1.40;;;;;;;;;;4935564;29;20046;-77
2022/05/11 01:59:11;;;;;;;2.00;1.40;;;;;;;;;;4953996;29;20043;-76
2022/05/11 02:01:39;;;;;;;2.00;1.30;;;;;;;;;;4963095;29;20071;-78
2022/05/11 02:07:49;;;;;;;1.70;1.40;;;;;;;;;;4954718;29;20370;-77
2022/05/11 02:09:37;;;;;;;1.63;1.52;;;;;;;;;;4900060;29;20130;-76
2022/05/11 02:12:03;;;;;;;1.60;1.50;;;;;;;;;;4932007;29;20182;-75
2022/05/11 02:14:29;;;;;;;1.63;1.52;;;;;;;;;;4916260;29;20074;-78
2022/05/11 02:16:55;;;;;;;1.42;1.42;;;;;;;;;;4944154;29;20043;-83
2022/05/11 02:19:21;;;;;;;1.58;1.48;;;;;;;;;;4933122;29;20099;-79
2022/05/11 02:21:46;;;;;;;2.95;1.63;;;;;;;;;;4960524;29;20047;-83
2022/05/11 02:24:12;;;;;;;1.60;1.50;;;;;;;;;;4971303;29;20107;-84
2022/05/11 02:26:38;;;;;;;2.67;1.75;;;;;;;;;;4978333;28;20051;-82
2022/05/11 02:29:04;;;;;;;3.20;1.80;;;;;;;;;;4965469;29;20043;-80
2022/05/11 02:31:30;;;;;;;3.08;1.52;;;;;;;;;;4937488;29;20062;-79
2022/05/11 02:33:56;;;;;;;3.75;1.70;;;;;;;;;;4907521;29;20104;-80
2022/05/11 02:36:23;;;;;;;3.63;1.60;;;;;;;;;;4945121;29;20106;-78
2022/05/11 02:38:49;;;;;;;3.50;1.40;;;;;;;;;;4946184;29;20049;-79
2022/05/11 02:41:15;;;;;;;1.92;1.77;;;;;;;;;;4951704;29;20129;-78
2022/05/11 02:43:41;;;;;;;2.38;1.50;;;;;;;;;;4917966;29;20043;-78
2022/05/11 02:46:08;;;;;;;6.07;1.70;;;;;;;;;;4935822;29;20059;-81
2022/05/11 02:48:34;;;;;;;2.80;1.52;;;;;;;;;;4935942;29;20074;-81
2022/05/11 02:50:59;;;;;;;1.95;1.65;;;;;;;;;;4954195;29;20085;-82
2022/05/11 02:53:25;;;;;;;1.73;1.63;;;;;;;;;;4958768;29;20043;-82
2022/05/11 02:55:52;;;;;;;1.30;1.30;;;;;;;;;;4925919;29;20107;-82
2022/05/11 02:58:19;;;;;;;1.55;1.40;;;;;;;;;;4937665;29;20565;-79
2022/05/11 03:00:45;;;;;;;1.60;1.50;;;;;;;;;;4934010;29;20097;-80
2022/05/11 03:03:12;;;;;;;3.33;1.60;;;;;;;;;;4949664;29;20047;-80
2022/05/11 03:05:38;;;;;;;1.80;1.65;;;;;;;;;;4935118;29;20055;-80
2022/05/11 03:08:04;;;;;;;3.63;1.63;;;;;;;;;;4951029;29;20603;-81
2022/05/11 03:10:30;;;;;;;2.22;1.50;;;;;;;;;;4952516;29;20042;-81
2022/05/11 03:12:56;;;;;;;1.90;1.80;;;;;;;;;;4935312;29;20095;-80
2022/05/11 03:15:22;;;;;;;1.73;1.63;;;;;;;;;;4953493;29;20051;-80
2022/05/11 03:17:48;;;;;;;1.73;1.63;;;;;;;;;;4951118;29;20042;-81
2022/05/11 03:20:14;;;;;;;1.60;1.50;;;;;;;;;;4935344;29;20145;-84
2022/05/11 03:22:40;;;;;;;2.70;1.75;;;;;;;;;;4958715;29;20096;-80
2022/05/11 03:25:06;;;;;;;1.70;1.60;;;;;;;;;;4942997;29;20138;-82
2022/05/11 03:27:32;;;;;;;3.75;1.58;;;;;;;;;;4924611;29;20043;-83
2022/05/11 03:29:59;;;;;;;3.20;1.40;;;;;;;;;;4958511;29;20059;-84
2022/05/11 03:35:10;;;;;;;2.40;1.80;;;;;;;;;;4951285;29;20062;-82
2022/05/11 03:37:37;;;;;;;6.70;1.90;;;;;;;;;;4952259;29;20051;-82
2022/05/11 03:40:05;;;;;;;3.03;1.90;;;;;;;;;;4954138;29;20043;-84
2022/05/11 03:42:31;;;;;;;5.40;1.90;;;;;;;;;;4956174;29;20039;-82
2022/05/11 03:45:08;;;;;;;3.65;1.70;;;;;;;;;;4960882;29;20070;-82
2022/05/11 03:47:34;;;;;;;2.55;1.55;;;;;;;;;;4957261;29;20044;-83
2022/05/11 03:50:00;;;;;;;5.80;1.83;;;;;;;;;;4938809;29;20034;-84
2022/05/11 03:52:26;;;;;;;1.80;1.70;;;;;;;;;;4947936;29;20122;-83
2022/05/11 03:54:52;;;;;;;1.83;1.70;;;;;;;;;;4963729;29;20067;-83
2022/05/11 03:57:18;;;;;;;4.20;2.10;;;;;;;;;;4966965;29;20051;-82
2022/05/11 03:59:43;;;;;;;1.90;1.80;;;;;;;;;;4962753;29;20145;-82
2022/05/11 04:02:09;;;;;;;3.58;3.13;;;;;;;;;;4944277;29;20558;-83
2022/05/11 04:04:35;;;;;;;2.72;2.53;;;;;;;;;;4943627;29;20043;-82
2022/05/11 04:07:01;;;;;;;3.22;2.90;;;;;;;;;;4941208;29;20078;-82
2022/05/11 04:09:27;;;;;;;7.82;3.80;;;;;;;;;;4917266;29;20039;-78
2022/05/11 04:11:53;;;;;;;8.15;5.55;;;;;;;;;;4943508;29;20070;-79
2022/05/11 04:14:19;;;;;;;9.98;5.97;;;;;;;;;;4953098;29;20614;-77
2022/05/11 04:16:45;;;;;;;7.40;5.03;;;;;;;;;;4950126;29;20138;-78
2022/05/11 04:19:11;;;;;;;7.93;7.13;;;;;;;;;;4952294;28;20197;-78
2022/05/11 04:21:37;;;;;;;8.30;6.68;;;;;;;;;;4964381;28;20077;-77
2022/05/11 04:24:03;;;;;;;5.93;5.43;;;;;;;;;;4933213;29;20130;-77
2022/05/11 04:26:30;;;;;;;6.32;5.57;;;;;;;;;;4950401;29;20059;-79
2022/05/11 04:28:56;;;;;;;6.65;5.93;;;;;;;;;;4932969;29;20502;-78
2022/05/11 04:31:22;;;;;;;7.78;5.25;;;;;;;;;;4933655;29;20051;-80
2022/05/11 04:33:50;;;;;;;8.27;5.85;;;;;;;;;;4950575;29;20039;-80
2022/05/11 04:36:16;;;;;;;9.60;5.10;;;;;;;;;;4950571;29;20047;-79
2022/05/11 04:38:42;;;;;;;5.32;4.25;;;;;;;;;;4917138;29;20039;-80
2022/05/11 04:41:08;;;;;;;5.35;4.00;;;;;;;;;;4953832;29;20078;-80
2022/05/11 04:43:34;;;;;;;8.77;3.42;;;;;;;;;;4921014;29;20047;-78
2022/05/11 04:46:00;;;;;;;5.40;3.85;;;;;;;;;;4940303;29;20052;-82
2022/05/11 04:48:26;;;;;;;3.63;3.30;;;;;;;;;;4935445;29;20071;-75
2022/05/11 04:50:52;;;;;;;5.90;3.50;;;;;;;;;;4901403;29;20043;-75
2022/05/11 04:53:18;;;;;;;5.45;3.10;;;;;;;;;;4942832;29;20506;-73
2022/05/11 04:55:44;;;;;;;4.53;2.92;;;;;;;;;;4942444;29;20043;-74
2022/05/11 04:58:10;;;;;;;6.65;2.80;;;;;;;;;;4886064;29;20051;-75
2022/05/11 05:00:36;;;;;;;5.47;2.63;;;;;;;;;;4934179;29;20047;-74
2022/05/11 05:03:04;;;;;;;4.57;2.13;;;;;;;;;;4917587;29;20142;-74
2022/05/11 05:05:30;;;;;;;6.18;2.60;;;;;;;;;;4934624;29;20046;-74
2022/05/11 05:07:56;;;;;;;4.60;2.50;;;;;;;;;;4953037;28;20043;-73
2022/05/11 05:10:22;;;;;;;3.40;2.50;;;;;;;;;;4953254;28;20051;-74
2022/05/11 05:12:49;;;;;;;3.00;2.70;;;;;;;;;;4952910;28;20558;-74
2022/05/11 05:15:15;;;;;;;3.88;2.70;;;;;;;;;;4953333;28;20059;-74
2022/05/11 05:17:40;;;;;;;2.88;2.65;;;;;;;;;;4949385;28;20046;-74
2022/05/11 05:20:07;;;;;;;4.30;2.88;;;;;;;;;;4942524;29;20422;-75
2022/05/11 05:22:34;;;;;;;7.20;2.60;;;;;;;;;;4919227;29;20043;-80
2022/05/11 05:25:00;;;;;;;2.70;2.50;;;;;;;;;;4942243;29;20108;-80
2022/05/11 05:27:27;;;;;;;4.65;2.78;;;;;;;;;;4917489;29;20059;-82
2022/05/11 05:32:38;;;;;;;3.67;2.63;;;;;;;;;;4926588;29;20538;-76
2022/05/11 05:35:04;;;;;;;5.40;2.60;;;;;;;;;;4909212;29;20044;-76
2022/05/11 05:37:30;;;;;;;4.25;2.97;;;;;;;;;;4940904;29;20721;-77
2022/05/11 05:39:56;;;;;;;7.43;3.40;;;;;;;;;;4940009;29;20043;-73
2022/05/11 05:42:23;;;;;;;7.03;3.00;;;;;;;;;;4921016;29;20031;-73
2022/05/11 05:44:49;;;;;;;6.50;2.78;;;;;;;;;;4924440;29;20130;-75
2022/05/11 05:47:16;;;;;;;4.18;2.75;;;;;;;;;;4906173;29;20138;-75
2022/05/11 05:49:41;;;;;;;2.80;2.55;;;;;;;;;;4922226;29;20058;-77
2022/05/11 05:52:07;;;;;;;6.35;2.75;;;;;;;;;;4937980;29;20047;-76
2022/05/11 05:54:33;;;;;;;10.75;3.03;;;;;;;;;;4906077;29;20040;-76
2022/05/11 05:56:59;;;;;;;4.97;2.65;;;;;;;;;;4938489;29;20055;-75
2022/05/11 05:59:25;;;;;;;6.53;2.38;;;;;;;;;;4943661;29;20095;-75
2022/05/11 06:01:51;;;;;;;8.38;3.20;;;;;;;;;;4941454;29;20043;-75
2022/05/11 06:04:17;;;;;;;7.53;2.50;;;;;;;;;;4922268;29;20055;-74
2022/05/11 06:06:43;;;;;;;5.88;2.80;;;;;;;;;;4922246;29;20055;-75
2022/05/11 06:09:09;;;;;;;4.00;3.00;;;;;;;;;;4938911;29;20043;-74
2022/05/11 06:11:35;;;;;;;5.32;2.28;;;;;;;;;;4941741;29;20051;-76
2022/05/11 06:14:01;;;;;;;2.88;2.30;;;;;;;;;;4938174;29;20485;-74
2022/05/11 06:16:27;;;;;;;5.03;2.30;;;;;;;;;;4922607;29;20511;-74
2022/05/11 06:18:53;;;;;;;2.85;2.22;;;;;;;;;;4923157;29;20122;-74
2022/05/11 06:21:19;;;;;;;3.38;1.80;;;;;;;;;;4937531;29;20062;-74
2022/05/11 06:23:45;;;;;;;8.85;2.40;;;;;;;;;;4923488;29;20503;-75
2022/05/11 06:26:11;;;;;;;3.00;2.05;;;;;;;;;;4940246;29;20636;-76
2022/05/11 06:28:37;;;;;;;4.40;1.88;;;;;;;;;;4937727;29;20040;-76
2022/05/11 06:31:03;;;;;;;5.47;2.10;;;;;;;;;;4924787;29;20095;-77
2022/05/11 06:33:32;;;;;;;6.15;2.05;;;;;;;;;;4937091;29;20048;-77
2022/05/11 06:35:58;;;;;;;6.47;1.88;;;;;;;;;;4924270;29;20047;-77
2022/05/11 06:38:24;;;;;;;7.15;2.10;;;;;;;;;;4935033;29;20138;-76
2022/05/11 06:40:50;;;;;;;4.40;2.30;;;;;;;;;;4920705;29;20151;-78
2022/05/11 06:43:15;;;;;;;4.80;1.90;;;;;;;;;;4937548;29;20573;-80
2022/05/11 06:45:42;;;;;;;5.13;1.90;;;;;;;;;;4941064;29;20139;-79
2022/05/11 06:48:08;;;;;;;6.00;2.13;;;;;;;;;;4938714;29;20040;-75
2022/05/11 06:50:34;;;;;;;3.92;2.30;;;;;;;;;;4921068;29;20069;-75
2022/05/11 06:53:00;;;;;;;6.57;1.95;;;;;;;;;;4922290;29;20058;-75
2022/05/11 07:01:00;;;;;;;3.13;2.05;;;;;;;;;;4906903;29;20111;-75
2022/05/11 07:03:26;;;;;;;6.20;2.47;;;;;;;;;;4936555;29;20048;-75
2022/05/11 07:05:52;;;;;;;4.90;2.22;;;;;;;;;;4938267;29;20052;-75
2022/05/11 07:08:17;;;;;;;7.13;2.80;;;;;;;;;;4901230;29;20043;-75
2022/05/11 07:12:17;;;;;;;5.40;2.28;;;;;;;;;;4921187;29;20035;-75
2022/05/11 07:13:29;;;;;;;10.38;2.95;;;;;;;;;;4935709;28;20049;-74
2022/05/11 07:15:55;;;;;;;4.05;2.10;;;;;;;;;;4935499;29;20527;-74
2022/05/11 07:18:21;;;;;;;2.83;2.40;;;;;;;;;;4938405;29;20036;-74
2022/05/11 07:20:47;;;;;;;4.18;2.38;;;;;;;;;;4937064;29;20047;-75
2022/05/11 07:23:15;;;;;;;3.42;2.53;;;;;;;;;;4921479;29;20039;-75
2022/05/11 07:25:40;;;;;;;6.05;2.05;;;;;;;;;;4904647;29;20067;-75
2022/05/11 07:28:06;;;;;;;3.47;2.10;;;;;;;;;;4937821;29;20054;-73
2022/05/11 07:30:33;;;;;;;6.45;2.35;;;;;;;;;;4919307;29;20048;-75
2022/05/11 07:32:59;;;;;;;3.72;2.10;;;;;;;;;;4940726;28;20532;-74
2022/05/11 07:35:25;;;;;;;7.97;2.60;;;;;;;;;;4935880;29;20047;-73
2022/05/11 07:37:51;;;;;;;4.43;2.13;;;;;;;;;;4939866;29;20455;-72
2022/05/11 07:40:18;;;;;;;11.05;2.67;;;;;;;;;;4935978;29;20118;-73
2022/05/11 07:42:44;;;;;;;2.88;2.60;;;;;;;;;;4915087;29;20074;-74
2022/05/11 07:45:14;;;;;;;8.38;2.75;;;;;;;;;;4923414;29;20063;-74
2022/05/11 07:47:40;;;;;;;3.35;2.40;;;;;;;;;;4937858;29;20035;-74
2022/05/11 07:50:07;;;;;;;6.55;2.35;;;;;;;;;;4921797;29;20394;-73
2022/05/11 07:52:33;;;;;;;2.50;2.30;;;;;;;;;;4939356;29;20077;-73
2022/05/11 07:54:59;;;;;;;4.45;2.22;;;;;;;;;;4936581;29;20534;-73
2022/05/11 08:00:09;;;;;;;4.95;2.65;;;;;;;;;;4936138;29;20138;-74
2022/05/11 08:02:35;;;;;;;7.63;2.30;;;;;;;;;;4936183;29;20055;-73
2022/05/11 08:05:03;;;;;;;2.33;1.95;;;;;;;;;;4923631;29;20078;-74
2022/05/11 08:07:34;;;;;;;3.42;2.10;;;;;;;;;;4919147;29;20040;-73
2022/05/11 08:09:59;;;;;;;4.38;1.90;;;;;;;;;;4920102;29;20043;-72
2022/05/11 08:12:26;;;;;;;3.50;2.05;;;;;;;;;;4937635;29;20048;-72
2022/05/11 08:14:53;;;;;;;3.38;2.40;;;;;;;;;;4941383;28;20395;-73
2022/05/11 08:17:23;;;;;;;4.72;2.20;;;;;;;;;;4939851;28;20651;-73
2022/05/11 08:19:48;;;;;;;5.33;2.20;;;;;;;;;;4942015;29;20058;-74
2022/05/11 08:22:15;;;;;;;5.93;2.53;;;;;;;;;;4924397;29;20294;-75
2022/05/11 08:24:41;;;;;;;5.13;2.25;;;;;;;;;;4940284;29;20482;-73
2022/05/11 08:27:10;;;;;;;5.82;2.42;;;;;;;;;;4941036;29;20142;-73
2022/05/11 08:35:05;;;;;;;5.75;1.98;;;;;;;;;;4941671;29;20672;-73
2022/05/11 08:37:31;;;;;;;3.85;1.90;;;;;;;;;;4940240;29;20050;-73
2022/05/11 08:39:57;;;;;;;2.67;1.70;;;;;;;;;;4941145;29;20047;-72
2022/05/11 08:42:24;;;;;;;2.30;2.10;;;;;;;;;;4939648;29;20040;-73
2022/05/11 08:44:50;;;;;;;2.10;1.90;;;;;;;;;;4916755;29;20042;-73
2022/05/11 08:47:23;;;;;;;2.20;2.10;;;;;;;;;;4923957;29;20056;-73
2022/05/11 08:49:50;;;;;;;3.08;2.25;;;;;;;;;;4909484;29;20048;-73
2022/05/11 08:52:35;;;;;;;4.00;2.80;;;;;;;;;;4945715;29;20055;-74
2022/05/11 08:55:08;;;;;;;6.82;2.30;;;;;;;;;;4941674;29;20047;-75
2022/05/11 08:57:36;;;;;;;4.35;1.85;;;;;;;;;;4939164;29;20050;-73
2022/05/11 09:00:07;;;;;;;10.23;2.00;;;;;;;;;;4943128;29;20067;-73
2022/05/11 09:02:39;;;;;;;4.00;1.95;;;;;;;;;;4922035;29;20040;-73
2022/05/11 09:05:05;;;;;;;4.65;2.17;;;;;;;;;;4921642;29;20066;-73
2022/05/11 09:07:40;;;;;;;4.05;2.28;;;;;;;;;;4923360;29;20051;-74
2022/05/11 09:10:07;;;;;;;4.47;2.15;;;;;;;;;;4923842;29;20059;-73
2022/05/11 09:12:35;;;;;;;8.55;2.58;;;;;;;;;;4932777;29;20077;-73
2022/05/11 09:15:01;;;;;;;2.72;2.00;;;;;;;;;;4920646;29;20601;-73
2022/05/11 09:17:33;;;;;;;8.23;2.00;;;;;;;;;;4923607;29;20049;-73
2022/05/11 09:20:01;;;;;;;8.52;2.10;;;;;;;;;;4938243;29;20091;-73
2022/05/11 09:22:27;;;;;;;7.55;2.25;;;;;;;;;;4919021;29;20058;-73
2022/05/11 09:24:53;;;;;;;3.78;2.33;;;;;;;;;;4941867;29;20135;-71
2022/05/11 09:27:30;;;;;;;5.90;2.15;;;;;;;;;;4922703;29;20051;-72
2022/05/11 09:30:02;;;;;;;3.72;2.75;;;;;;;;;;4915379;29;20035;-72
2022/05/11 09:32:32;;;;;;;4.35;1.83;;;;;;;;;;4938525;29;20051;-71
2022/05/11 09:35:17;;;;;;;2.80;1.90;;;;;;;;;;4939163;29;20505;-71
2022/05/11 09:37:44;;;;;;;3.55;2.38;;;;;;;;;;4940295;29;20047;-76
2022/05/11 09:40:11;;;;;;;9.75;2.33;;;;;;;;;;4920477;29;20061;-75
2022/05/11 09:42:47;;;;;;;4.65;1.90;;;;;;;;;;4924091;29;20043;-75
2022/05/11 09:45:13;;;;;;;2.15;1.95;;;;;;;;;;4938103;29;20115;-75
2022/05/11 09:48:02;;;;;;;6.40;2.22;;;;;;;;;;4939815;29;20059;-75
2022/05/11 09:50:25;;;;;;;1.70;1.60;;;;;;;;;;4940605;28;20095;-75
2022/05/11 09:52:52;;;;;;;14.90;2.42;;;;;;;;;;4941034;29;20585;-75
2022/05/11 09:55:24;;;;;;;7.00;2.10;;;;;;;;;;4923976;29;20052;-76
2022/05/11 09:57:56;;;;;;;5.93;2.60;;;;;;;;;;4926690;29;20079;-75
2022/05/11 10:00:42;;;;;;;4.22;1.80;;;;;;;;;;4919932;29;20112;-75
2022/05/11 10:03:10;;;;;;;2.15;1.90;;;;;;;;;;4925083;29;20066;-75
2022/05/11 10:05:36;;;;;;;2.00;1.75;;;;;;;;;;4938238;29;20142;-76
2022/05/11 10:08:02;;;;;;;5.57;2.22;;;;;;;;;;4941033;29;20035;-75
2022/05/11 10:10:32;;;;;;;6.53;2.45;;;;;;;;;;4939538;29;20051;-75
2022/05/11 10:13:07;;;;;;;2.25;2.08;;;;;;;;;;4921059;29;20035;-74
2022/05/11 10:23:49;;;;;;;4.13;2.25;;;;;;;;;;4951009;29;20184;-76
2022/05/11 10:26:19;;;;;;;4.30;2.10;;;;;;;;;;4933145;29;20051;-76
2022/05/11 10:28:49;;;;;;;5.00;3.00;;;;;;;;;;4933903;29;20035;-75
2022/05/11 10:31:33;;;;;;;3.58;2.10;;;;;;;;;;4949996;29;20422;-77
2022/05/11 10:34:08;;;;;;;5.43;2.15;;;;;;;;;;4951298;29;20042;-76
2022/05/11 10:36:53;;;;;;;5.72;2.40;;;;;;;;;;4951019;28;20399;-76
2022/05/11 10:39:18;;;;;;;5.88;3.00;;;;;;;;;;4934161;29;20057;-75
2022/05/11 10:41:51;;;;;;;7.22;2.38;;;;;;;;;;4951442;29;20122;-75
2022/05/11 10:44:32;;;;;;;8.50;2.97;;;;;;;;;;4934226;29;20130;-75
2022/05/11 10:47:01;;;;;;;3.47;2.35;;;;;;;;;;4951019;29;20139;-76
2022/05/11 10:49:34;;;;;;;5.13;2.10;;;;;;;;;;4951326;29;20629;-75
2022/05/11 10:52:15;;;;;;;5.20;2.83;;;;;;;;;;4934022;29;20518;-75
2022/05/11 10:54:51;;;;;;;2.50;2.30;;;;;;;;;;4934196;29;20047;-75
2022/05/11 10:57:22;;;;;;;8.45;2.20;;;;;;;;;;4951055;29;20503;-76
2022/05/11 11:00:07;;;;;;;2.63;2.10;;;;;;;;;;4918111;29;20046;-76
2022/05/11 11:02:52;;;;;;;6.97;2.20;;;;;;;;;;4951335;29;20067;-76
2022/05/11 11:05:21;;;;;;;11.50;2.00;;;;;;;;;;4950654;28;20058;-76
2022/05/11 11:08:05;;;;;;;2.95;2.00;;;;;;;;;;4951265;29;20047;-76
2022/05/11 11:10:51;;;;;;;2.13;1.98;;;;;;;;;;4951028;29;20042;-76
2022/05/11 11:13:29;;;;;;;5.97;2.25;;;;;;;;;;4951093;29;20075;-75
2022/05/11 11:15:57;;;;;;;5.30;1.95;;;;;;;;;;4935917;29;20533;-74
2022/05/11 11:18:31;;;;;;;4.47;2.17;;;;;;;;;;4945012;28;20548;-75
2022/05/11 11:21:01;;;;;;;2.50;2.30;;;;;;;;;;4914595;29;20052;-75
2022/05/11 11:23:31;;;;;;;2.88;1.85;;;;;;;;;;4914691;29;20053;-75
2022/05/11 11:25:59;;;;;;;3.38;1.90;;;;;;;;;;4916848;29;20142;-76
2022/05/11 11:28:24;;;;;;;1.80;1.70;;;;;;;;;;4933722;29;20041;-76
2022/05/11 11:30:58;;;;;;;2.35;2.00;;;;;;;;;;4950626;29;20055;-75
2022/05/11 11:33:24;;;;;;;2.30;2.13;;;;;;;;;;4929386;29;20135;-75
2022/05/11 11:35:57;;;;;;;3.10;2.20;;;;;;;;;;4939902;29;20052;-75
2022/05/11 11:38:24;;;;;;;4.90;1.92;;;;;;;;;;4914719;29;20043;-75
2022/05/11 11:41:10;;;;;;;8.05;2.55;;;;;;;;;;4931519;29;20103;-75
2022/05/11 11:43:50;;;;;;;2.42;2.25;;;;;;;;;;4931633;29;20067;-74
2022/05/11 11:46:28;;;;;;;3.08;2.00;;;;;;;;;;4931237;29;20625;-76
2022/05/11 11:49:02;;;;;;;2.35;1.90;;;;;;;;;;4934445;29;20039;-76
2022/05/11 11:51:50;;;;;;;4.60;2.30;;;;;;;;;;4937724;29;20177;-75
2022/05/11 11:54:25;;;;;;;4.95;2.00;;;;;;;;;;4904746;29;20066;-76
2022/05/11 11:56:53;;;;;;;6.45;2.05;;;;;;;;;;4937841;29;20529;-76
2022/05/11 11:59:25;;;;;;;2.95;2.20;;;;;;;;;;4920617;29;20454;-76
2022/05/11 12:01:52;;;;;;;3.45;1.95;;;;;;;;;;4937999;29;20579;-76
2022/05/11 12:04:22;;;;;;;1.83;1.63;;;;;;;;;;4938304;29;20090;-77
2022/05/11 12:15:16;;;;;;;3.45;1.98;;;;;;;;;;4935328;29;20419;-76
2022/05/11 12:17:42;;;;;;;5.45;2.22;;;;;;;;;;4942741;29;20071;-76
2022/05/11 12:20:09;;;;;;;2.60;2.40;;;;;;;;;;4937875;29;20082;-76
2022/05/11 12:22:40;;;;;;;7.03;2.10;;;;;;;;;;4944150;29;20047;-76
2022/05/11 12:25:12;;;;;;;4.43;2.30;;;;;;;;;;4943049;29;20040;-76
2022/05/11 12:27:38;;;;;;;6.40;2.35;;;;;;;;;;4937889;29;20579;-76
2022/05/11 12:30:05;;;;;;;2.60;1.65;;;;;;;;;;4924451;29;20454;-75
2022/05/11 12:32:39;;;;;;;2.33;2.10;;;;;;;;;;4956072;28;20046;-76
2022/05/11 12:35:12;;;;;;;2.03;1.92;;;;;;;;;;4947439;28;20034;-75
2022/05/11 12:37:38;;;;;;;3.75;2.20;;;;;;;;;;4966239;28;20050;-76
2022/05/11 12:40:08;;;;;;;5.18;2.30;;;;;;;;;;4964430;28;20049;-76
2022/05/11 12:42:34;;;;;;;3.22;2.10;;;;;;;;;;4966466;28;20532;-75
2022/05/11 12:45:00;;;;;;;1.98;1.80;;;;;;;;;;4966345;28;20035;-76
2022/05/11 12:47:27;;;;;;;3.03;1.90;;;;;;;;;;4966171;28;20038;-76
2022/05/11 12:49:53;;;;;;;4.10;1.90;;;;;;;;;;4965177;28;20035;-76
2022/05/11 12:52:20;;;;;;;2.78;2.08;;;;;;;;;;4965202;28;20449;-76
2022/05/11 12:55:00;;;;;;;5.50;2.00;;;;;;;;;;4966970;28;20043;-76
2022/05/11 12:57:33;;;;;;;9.00;2.10;;;;;;;;;;4945516;28;20048;-74
2022/05/11 12:59:59;;;;;;;6.13;2.63;;;;;;;;;;4942309;28;20134;-75
2022/05/11 13:02:37;;;;;;;4.00;2.78;;;;;;;;;;4942440;29;20130;-75
2022/05/11 13:05:06;;;;;;;3.28;2.10;;;;;;;;;;4945597;29;20089;-75
2022/05/11 13:07:38;;;;;;;2.30;2.10;;;;;;;;;;4927776;29;20565;-74
2022/05/11 13:10:04;;;;;;;4.47;2.10;;;;;;;;;;4929185;29;20413;-75
2022/05/11 13:12:31;;;;;;;5.40;2.10;;;;;;;;;;4947473;29;20043;-75
2022/05/11 13:14:58;;;;;;;7.32;2.40;;;;;;;;;;4931202;29;20039;-76
2022/05/11 13:17:25;;;;;;;3.83;2.05;;;;;;;;;;4914255;29;20597;-74
2022/05/11 13:19:52;;;;;;;4.20;2.17;;;;;;;;;;4913365;29;20048;-74
2022/05/11 13:22:19;;;;;;;2.90;2.20;;;;;;;;;;4944622;29;20039;-76
2022/05/11 13:24:49;;;;;;;3.80;1.92;;;;;;;;;;4946052;29;20426;-77
2022/05/11 13:27:35;;;;;;;3.13;2.10;;;;;;;;;;4927135;29;20134;-76
2022/05/11 13:30:08;;;;;;;4.53;2.63;;;;;;;;;;4944093;29;20121;-77
2022/05/11 13:32:38;;;;;;;2.72;2.53;;;;;;;;;;4948575;29;20049;-77
2022/05/11 13:35:23;;;;;;;8.90;2.63;;;;;;;;;;4946694;29;20031;-77
2022/05/11 13:38:08;;;;;;;3.97;2.22;;;;;;;;;;4945377;29;20750;-76
2022/05/11 13:40:38;;;;;;;2.15;1.95;;;;;;;;;;4944855;28;20043;-76
2022/05/11 13:43:15;;;;;;;2.33;2.13;;;;;;;;;;4942656;29;20066;-76
2022/05/11 13:45:57;;;;;;;4.68;1.80;;;;;;;;;;4946421;29;20042;-75
2022/05/11 13:48:30;;;;;;;2.55;2.20;;;;;;;;;;4930421;29;20069;-76
2022/05/11 13:51:09;;;;;;;4.53;2.10;;;;;;;;;;4932033;29;20506;-76
2022/05/11 13:53:35;;;;;;;4.72;2.10;;;;;;;;;;4944734;28;20532;-74
2022/05/11 13:56:09;;;;;;;3.53;1.90;;;;;;;;;;4932248;29;20107;-76
2022/05/11 13:58:36;;;;;;;3.15;2.45;;;;;;;;;;4950819;29;20537;-76
2022/05/11 14:01:03;;;;;;;5.03;2.17;;;;;;;;;;4950456;28;20041;-76
2022/05/11 14:03:32;;;;;;;4.97;2.00;;;;;;;;;;4950617;29;20046;-75
2022/05/11 14:05:59;;;;;;;3.40;2.30;;;;;;;;;;4931618;29;20051;-76
2022/05/11 14:08:24;;;;;;;6.60;2.53;;;;;;;;;;4950616;29;20784;-76
2022/05/11 14:10:51;;;;;;;9.40;2.95;;;;;;;;;;4950540;28;20103;-76
2022/05/11 14:13:17;;;;;;;3.80;2.92;;;;;;;;;;4916870;29;20150;-76
2022/05/11 14:15:43;;;;;;;6.18;2.17;;;;;;;;;;4950477;29;20058;-75
2022/05/11 14:18:10;;;;;;;5.38;2.17;;;;;;;;;;4933302;29;20035;-76
2022/05/11 14:20:36;;;;;;;2.42;2.22;;;;;;;;;;4915747;29;20546;-75
2022/05/11 14:23:03;;;;;;;5.72;2.67;;;;;;;;;;4951228;29;20035;-75
2022/05/11 14:25:29;;;;;;;3.60;2.17;;;;;;;;;;4900298;29;20047;-76
2022/05/11 14:27:56;;;;;;;2.40;2.20;;;;;;;;;;4934271;29;20058;-76
2022/05/11 14:30:22;;;;;;;6.45;3.08;;;;;;;;;;4939721;29;20045;-76
2022/05/11 14:32:48;;;;;;;5.45;2.20;;;;;;;;;;4930119;29;20043;-76
2022/05/11 14:35:16;;;;;;;6.50;2.38;;;;;;;;;;4959225;28;20047;-76
2022/05/11 14:37:42;;;;;;;2.22;2.03;;;;;;;;;;4934172;29;20047;-75
2022/05/11 14:40:09;;;;;;;3.95;2.00;;;;;;;;;;4932395;29;20046;-76
2022/05/11 14:42:35;;;;;;;6.13;2.03;;;;;;;;;;4950535;29;20039;-75
2022/05/11 14:45:00;;;;;;;5.55;2.08;;;;;;;;;;4918795;29;20050;-75
2022/05/11 14:47:26;;;;;;;10.07;2.30;;;;;;;;;;4947627;29;20524;-76
2022/05/11 14:49:52;;;;;;;9.25;2.50;;;;;;;;;;4931158;29;20051;-75
2022/05/11 14:52:18;;;;;;;9.98;2.25;;;;;;;;;;4932579;29;20039;-76
2022/05/11 14:54:44;;;;;;;4.85;2.92;;;;;;;;;;4949832;29;20623;-76
2022/05/11 15:02:40;;;;;;;2.47;1.70;;;;;;;;;;4948511;29;20038;-75
2022/05/11 15:05:07;;;;;;;2.50;2.30;;;;;;;;;;4946400;29;20087;-76
2022/05/11 15:07:33;;;;;;;4.45;2.35;;;;;;;;;;4949763;29;20115;-76
2022/05/11 15:09:59;;;;;;;4.22;2.15;;;;;;;;;;4932031;29;20466;-75
2022/05/11 15:15:10;;;;;;;4.82;2.00;;;;;;;;;;4929793;29;20035;-75
2022/05/11 15:17:36;;;;;;;2.80;2.10;;;;;;;;;;4949776;29;20047;-76
2022/05/11 15:20:03;;;;;;;6.55;2.28;;;;;;;;;;4949281;29;20043;-75
2022/05/11 15:22:29;;;;;;;10.75;2.17;;;;;;;;;;4949376;28;20133;-76
2022/05/11 15:24:56;;;;;;;5.88;2.38;;;;;;;;;;4914610;29;20050;-76
2022/05/11 15:27:22;;;;;;;4.15;2.70;;;;;;;;;;4948963;29;20396;-76
2022/05/11 15:29:48;;;;;;;6.70;2.35;;;;;;;;;;4948141;29;20038;-76
2022/05/11 15:32:24;;;;;;;3.80;2.20;;;;;;;;;;4948798;29;20533;-76
2022/05/11 15:34:51;;;;;;;5.78;2.30;;;;;;;;;;4930214;29;20035;-76
2022/05/11 15:37:17;;;;;;;4.32;2.50;;;;;;;;;;4948927;29;20043;-75